createdAt,value
2019-05-03T00:02:41.693Z,14.53
2019-05-03T00:07:43.367Z,14.50
2019-05-03T00:12:45.811Z,14.64
2019-05-03T00:17:48.271Z,14.60
2019-05-03T00:22:52.341Z,14.52
2019-05-03T00:27:53.168Z,14.62
2019-05-03T00:32:55.629Z,14.64
2019-05-03T00:37:58.080Z,14.66
2019-05-03T00:43:02.290Z,14.64
2019-05-03T00:48:02.991Z,14.65
2019-05-03T00:53:05.450Z,14.61
2019-05-03T00:58:07.940Z,14.59
2019-05-03T01:03:12.411Z,14.54
2019-05-03T01:08:12.857Z,14.48
2019-05-03T01:13:15.315Z,14.48
2019-05-03T01:18:21.829Z,14.40
2019-05-03T01:23:23.137Z,14.38
2019-05-03T01:28:25.602Z,14.41
2019-05-03T01:33:28.063Z,14.33
2019-05-03T01:38:31.856Z,14.29
2019-05-03T01:43:32.983Z,14.20
2019-05-03T01:48:41.725Z,14.20
2019-05-03T01:53:44.079Z,14.09
2019-05-03T01:58:46.533Z,14.05
2019-05-03T02:03:54.926Z,13.97
2019-05-03T02:08:57.388Z,13.89
2019-05-03T02:14:01.597Z,13.91
2019-05-03T02:19:02.532Z,13.97
2019-05-03T02:24:04.759Z,13.90
2019-05-03T02:29:07.218Z,14.01
2019-05-03T02:34:09.674Z,13.96
2019-05-03T02:39:13.546Z,13.84
2019-05-03T02:44:15.586Z,13.73
2019-05-03T02:49:17.058Z,13.78
2019-05-03T02:54:19.498Z,13.84
2019-05-03T02:59:21.950Z,13.90
2019-05-03T03:04:26.009Z,13.72
2019-05-03T03:09:26.871Z,13.62
2019-05-03T03:14:29.324Z,13.62
2019-05-03T03:19:31.782Z,13.53
2019-05-03T03:24:36.142Z,13.44
2019-05-03T03:29:36.722Z,13.41
2019-05-03T03:34:39.428Z,13.36
2019-05-03T03:39:41.630Z,13.13
2019-05-03T03:44:45.372Z,12.91
2019-05-03T03:49:46.597Z,13.05
2019-05-03T03:54:48.987Z,13.00
2019-05-03T03:59:51.460Z,13.12
2019-05-03T04:04:56.160Z,12.92
2019-05-03T04:09:56.593Z,13.01
2019-05-03T04:15:05.795Z,12.96
2019-05-03T04:20:07.796Z,12.97
2019-05-03T04:25:10.257Z,12.97
2019-05-03T04:30:12.724Z,13.10
2019-05-03T04:35:16.362Z,12.97
2019-05-03T04:40:17.652Z,13.01
2019-05-03T04:45:20.109Z,12.94
2019-05-03T04:50:25.273Z,13.01
2019-05-03T04:55:26.573Z,13.14
2019-05-03T05:00:27.518Z,13.21
2019-05-03T05:05:29.985Z,13.23
2019-05-03T05:10:32.452Z,13.25
2019-05-03T05:15:35.512Z,13.39
2019-05-03T05:20:37.381Z,13.44
2019-05-03T05:25:39.852Z,13.47
2019-05-03T05:30:44.353Z,13.47
2019-05-03T05:35:44.783Z,13.70
2019-05-03T05:41:05.294Z,13.90
2019-05-03T05:46:40.594Z,14.50
2019-05-03T05:53:15.259Z,14.62
2019-05-03T05:56:55.558Z,14.67
2019-05-03T06:02:06.691Z,15.12
2019-05-03T06:07:16.506Z,14.77
2019-05-03T06:12:21.492Z,16.11
2019-05-03T06:17:39.622Z,16.87
2019-05-03T06:35:04.954Z,17.40
2019-05-03T06:58:05.252Z,17.64
2019-05-03T07:03:07.664Z,17.89
2019-05-03T07:08:10.142Z,18.06
2019-05-03T07:13:12.597Z,18.70
2019-05-03T07:18:15.739Z,20.38
2019-05-03T07:23:17.536Z,19.41
2019-05-03T07:28:19.994Z,19.24
2019-05-03T07:33:22.450Z,21.27
2019-05-03T07:38:24.996Z,19.73
2019-05-03T07:43:27.382Z,19.67
2019-05-03T07:48:29.840Z,19.99
2019-05-03T07:53:32.327Z,19.15
2019-05-03T07:58:35.267Z,19.60
2019-05-03T08:03:37.253Z,18.66
2019-05-03T08:08:39.694Z,20.40
2019-05-03T08:13:42.172Z,23.42
2019-05-03T08:18:45.713Z,24.00
2019-05-03T08:23:47.111Z,21.15
2019-05-03T08:28:49.572Z,21.54
2019-05-03T08:33:57.664Z,24.98
2019-05-03T08:39:00.143Z,25.68
2019-05-03T08:44:02.605Z,35.51
2019-05-03T08:49:05.335Z,31.14
2019-05-03T08:54:07.534Z,26.25
2019-05-03T08:59:09.991Z,23.18
2019-05-03T09:04:12.455Z,21.02
2019-05-03T09:09:15.130Z,20.07
2019-05-03T09:14:17.433Z,21.79
2019-05-03T09:19:19.886Z,44.41
2019-05-03T09:24:24.444Z,38.65
2019-05-03T09:29:25.521Z,28.26
2019-05-03T09:34:27.297Z,23.81
2019-05-03T09:39:29.761Z,22.05
2019-05-03T09:44:32.225Z,22.13
2019-05-03T09:49:34.914Z,20.18
2019-05-03T09:54:45.182Z,20.01
2019-05-03T09:59:56.152Z,20.33
2019-05-03T10:04:47.985Z,21.86
2019-05-03T10:09:50.484Z,21.32
2019-05-03T10:14:54.821Z,21.03
2019-05-03T10:19:55.421Z,20.68
2019-05-03T10:24:57.882Z,22.25
2019-05-03T10:30:10.462Z,22.91
2019-05-03T10:35:15.278Z,20.74
2019-05-03T10:40:17.482Z,21.31
2019-05-03T10:45:19.947Z,21.16
2019-05-03T10:50:22.406Z,25.50
2019-05-03T10:55:25.102Z,28.31
2019-05-03T11:00:50.288Z,27.73
2019-05-03T11:05:29.921Z,26.28
2019-05-03T11:10:32.362Z,23.16
2019-05-03T11:15:35.090Z,21.37
2019-05-03T11:20:37.290Z,23.02
2019-05-03T11:25:39.755Z,23.31
2019-05-03T11:30:52.273Z,22.48
2019-05-03T11:35:56.785Z,23.51
2019-05-03T11:40:59.554Z,23.71
2019-05-03T11:46:02.032Z,21.90
2019-05-03T11:51:04.567Z,20.49
2019-05-03T11:56:07.033Z,20.95
2019-05-03T12:01:15.894Z,19.56
2019-05-03T12:06:11.956Z,18.62
2019-05-03T12:11:15.096Z,18.19
2019-05-03T12:16:23.771Z,18.08
2019-05-03T12:21:20.663Z,18.26
2019-05-03T12:26:22.572Z,18.13
2019-05-03T12:31:36.191Z,18.24
2019-05-03T12:36:26.868Z,18.07
2019-05-03T12:41:29.346Z,17.88
2019-05-03T12:46:31.820Z,17.64
2019-05-03T12:51:34.571Z,17.81
2019-05-03T12:56:36.756Z,17.92
2019-05-03T13:01:42.258Z,17.99
2019-05-03T13:06:47.490Z,17.52
2019-05-03T13:11:55.144Z,17.29
2019-05-03T13:16:52.442Z,16.86
2019-05-03T13:21:55.593Z,16.45
2019-05-03T13:26:57.416Z,16.31
2019-05-03T13:32:02.190Z,16.61
2019-05-03T13:37:02.328Z,16.72
2019-05-03T13:42:05.705Z,16.89
2019-05-03T13:47:07.283Z,16.74
2019-05-03T13:52:09.785Z,17.08
2019-05-03T13:57:12.283Z,17.64
2019-05-03T14:02:19.001Z,17.91
2019-05-03T14:07:17.217Z,17.29
2019-05-03T14:12:19.728Z,16.81
2019-05-03T14:17:22.203Z,16.16
2019-05-03T14:22:24.927Z,15.92
2019-05-03T14:27:27.157Z,15.86
2019-05-03T14:32:29.660Z,15.61
2019-05-03T14:37:32.129Z,15.92
2019-05-03T14:42:34.581Z,16.04
2019-05-03T14:47:37.055Z,16.35
2019-05-03T14:52:39.525Z,16.72
2019-05-03T14:57:41.983Z,16.57
2019-05-03T15:02:51.179Z,16.78
2019-05-03T15:07:55.809Z,17.09
2019-05-03T15:12:55.718Z,17.67
2019-05-03T15:17:58.012Z,17.67
2019-05-03T15:23:00.477Z,17.70
2019-05-03T15:28:04.805Z,17.81
2019-05-03T15:33:05.420Z,18.31
2019-05-03T15:38:07.851Z,18.38
2019-05-03T15:43:19.365Z,18.19
2019-05-03T15:48:21.825Z,17.90
2019-05-03T15:53:24.748Z,18.11
2019-05-03T15:58:26.862Z,17.84
2019-05-03T16:03:29.354Z,17.65
2019-05-03T16:08:31.815Z,17.26
2019-05-03T16:13:35.276Z,16.84
2019-05-03T16:18:36.761Z,16.32
2019-05-03T16:23:39.224Z,15.96
2019-05-03T16:28:56.611Z,15.85
2019-05-03T16:33:59.108Z,15.79
2019-05-03T16:39:01.554Z,15.77
2019-05-03T16:44:04.023Z,15.86
2019-05-03T16:49:06.674Z,15.80
2019-05-03T16:54:08.933Z,15.68
2019-05-03T16:59:11.394Z,15.72
2019-05-03T17:04:29.092Z,15.65
2019-05-03T17:09:35.330Z,15.94
2019-05-03T17:14:36.885Z,15.85
2019-05-03T17:19:39.372Z,16.00
2019-05-03T17:24:41.824Z,16.16
2019-05-03T17:29:44.564Z,15.92
2019-05-03T17:34:46.772Z,15.66
2019-05-03T17:39:49.228Z,15.33
2019-05-03T17:44:51.698Z,15.01
2019-05-03T17:49:54.640Z,14.77
2019-05-03T17:54:56.714Z,14.77
2019-05-03T18:00:02.004Z,14.65
2019-05-03T18:05:22.803Z,14.36
2019-05-03T18:10:25.264Z,14.12
2019-05-03T18:15:27.732Z,13.87
2019-05-03T18:20:30.198Z,13.66
2019-05-03T18:25:32.688Z,13.48
2019-05-03T18:30:35.168Z,13.29
2019-05-03T18:35:37.645Z,13.05
2019-05-03T18:40:40.141Z,12.93
2019-05-03T18:45:42.637Z,12.67
2019-05-03T18:50:45.620Z,12.69
2019-05-03T18:55:47.594Z,12.57
2019-05-03T19:00:50.138Z,12.29
2019-05-03T19:05:54.676Z,12.21
2019-05-03T19:11:01.404Z,12.22
2019-05-03T19:16:04.406Z,12.19
2019-05-03T19:21:06.367Z,12.07
2019-05-03T19:26:08.806Z,11.99
2019-05-03T19:31:11.321Z,11.87
2019-05-03T19:36:13.851Z,11.95
2019-05-03T19:41:16.389Z,12.00
2019-05-03T19:46:18.799Z,11.81
2019-05-03T19:51:21.276Z,11.87
2019-05-03T19:56:25.637Z,11.88
2019-05-03T20:01:26.202Z,11.93
2019-05-03T20:06:31.608Z,11.95
2019-05-03T20:11:34.670Z,12.02
2019-05-03T20:16:36.551Z,12.03
2019-05-03T20:21:39.009Z,12.12
2019-05-03T20:26:41.518Z,12.20
2019-05-03T20:31:44.717Z,12.08
2019-05-03T20:36:46.446Z,12.03
2019-05-03T20:41:48.918Z,12.07
2019-05-03T20:46:51.385Z,12.05
2019-05-03T20:51:54.409Z,12.02
2019-05-03T20:56:56.406Z,11.94
2019-05-03T21:01:58.862Z,12.03
2019-05-03T21:07:01.331Z,12.01
2019-05-03T21:12:04.503Z,11.94
2019-05-03T21:17:15.247Z,12.00
2019-05-03T21:22:17.699Z,12.08
2019-05-03T21:27:22.275Z,12.04
2019-05-03T21:32:22.638Z,11.87
2019-05-03T21:37:25.115Z,11.67
2019-05-03T21:42:27.567Z,11.55
2019-05-03T21:47:35.658Z,11.53
2019-05-03T21:52:38.139Z,11.58
2019-05-03T21:57:40.593Z,11.60
2019-05-03T22:02:43.064Z,11.69
2019-05-03T22:07:45.516Z,11.55
2019-05-03T22:12:47.963Z,11.55
2019-05-03T22:17:53.373Z,11.63
2019-05-03T22:22:55.816Z,11.81
2019-05-03T22:27:58.278Z,11.89
2019-05-03T22:33:00.735Z,12.02
2019-05-03T22:38:04.585Z,12.09
2019-05-03T22:43:05.659Z,12.06
2019-05-03T22:48:08.112Z,12.01
2019-05-03T22:53:10.563Z,12.09
2019-05-03T22:58:13.032Z,12.17
2019-05-03T23:03:15.510Z,12.26
2019-05-03T23:08:17.961Z,12.20
2019-05-03T23:13:20.409Z,12.13
2019-05-03T23:18:24.686Z,12.03
2019-05-03T23:23:45.454Z,11.94
2019-05-03T23:28:46.000Z,11.86
2019-05-03T23:33:48.465Z,11.77
2019-05-03T23:38:50.904Z,11.76
2019-05-03T23:43:53.366Z,11.56
2019-05-03T23:48:55.834Z,11.67
2019-05-03T23:53:58.288Z,11.58
2019-05-03T23:59:00.749Z,11.49
